»·PEaware :: N805RJ KWJF-KSBP

N805RJ :: KWJF-KSBP

FLIGHT INFORMATION

Flight Status: Arrived
Operator: Privately registered:
United States
More flights under this callsign
Pilot: Rickie J. (22768)
Aircraft: CESSNA 177 CARDINAL
(C177)
More flights by this aircraft type
Origin: KWJF Gen Fox
United States
Destination: KSBP San Luis Co Regl
United States
More flights between these airports :: More routes between these airports
Route: PMD V12 RZS V25 POZOE
File this flight plan on PilotEdge
Remarks:
Altitude:
(Current/Filed)
10,500ft
Speed:
(Current/Filed)
135kts
Departed: 09-Jan-21 03:30 PM
Arrived: 09-Jan-21 04:53 PM
Distance/Time
Traveled:
123nm/1:23
Distance/Time
To Go:
Arrived

Flight Plot

Page will automatically refresh every two minutes.

Flight plan parsing failed; only flown route is shown


Map Options




Map Legend


Flown Route
Filed Route
Departure Airport
Arrival Airport
Navaid (VOR, NDB)
Fix

Horizontal Profiles

Position Reports

Time Latitude Longitude Heading Altitude Ground
Speed
09-Jan-21 14:29 34.739125 -118.216830 72 2354ft 0kts
09-Jan-21 14:30 34.739125 -118.216830 72 2354ft 0kts
09-Jan-21 14:31 34.739125 -118.216830 72 2354ft 0kts
09-Jan-21 14:32 34.739125 -118.216830 72 2354ft 0kts
09-Jan-21 14:33 34.739125 -118.216830 72 2354ft 0kts
09-Jan-21 14:34 34.739125 -118.216830 72 2354ft 0kts
09-Jan-21 14:35 34.739125 -118.216830 72 2354ft 0kts
09-Jan-21 14:36 34.739125 -118.216830 72 2354ft 0kts
09-Jan-21 14:37 34.739125 -118.216830 72 2354ft 0kts
09-Jan-21 14:38 34.739125 -118.216830 72 2354ft 0kts
09-Jan-21 14:39 34.739125 -118.216830 72 2354ft 0kts
09-Jan-21 14:40 34.739125 -118.216830 72 2354ft 0kts
09-Jan-21 14:41 34.739125 -118.216830 72 2354ft 0kts
09-Jan-21 14:42 34.739125 -118.216830 72 2354ft 0kts
09-Jan-21 14:43 34.739125 -118.216830 72 2354ft 0kts
09-Jan-21 14:44 34.739125 -118.216830 72 2354ft 0kts
09-Jan-21 14:45 34.739125 -118.216830 72 2354ft 0kts
09-Jan-21 14:46 34.739125 -118.216830 72 2354ft 0kts
09-Jan-21 14:47 34.739125 -118.216830 72 2354ft 0kts
09-Jan-21 14:48 34.739125 -118.216830 72 2354ft 0kts
09-Jan-21 14:49 34.739125 -118.216830 72 2354ft 0kts
09-Jan-21 14:50 34.739125 -118.216830 72 2354ft 0kts
09-Jan-21 14:51 34.739125 -118.216830 72 2354ft 0kts
09-Jan-21 14:52 34.739125 -118.216830 72 2354ft 0kts
09-Jan-21 14:53 34.739125 -118.216830 72 2354ft 0kts
09-Jan-21 14:54 34.739125 -118.216830 72 2354ft 0kts
09-Jan-21 14:55 34.739125 -118.216830 72 2354ft 0kts
09-Jan-21 14:56 34.739125 -118.216830 72 2354ft 0kts
09-Jan-21 14:57 34.739125 -118.216830 72 2354ft 0kts
09-Jan-21 14:58 34.739125 -118.216830 72 2354ft 0kts
09-Jan-21 14:59 34.739125 -118.216830 72 2354ft 0kts
09-Jan-21 15:00 34.739125 -118.216830 72 2354ft 0kts
09-Jan-21 15:01 34.739125 -118.216830 72 2354ft 0kts
09-Jan-21 15:02 34.739125 -118.216830 72 2354ft 0kts
09-Jan-21 15:03 34.739125 -118.216830 72 2354ft 0kts
09-Jan-21 15:04 34.739125 -118.216830 72 2354ft 0kts
09-Jan-21 15:05 34.739125 -118.216830 72 2354ft 0kts
09-Jan-21 15:06 34.739125 -118.216830 72 2354ft 0kts
09-Jan-21 15:07 34.739125 -118.216830 72 2354ft 0kts
09-Jan-21 15:08 34.739125 -118.216830 72 2354ft 0kts
09-Jan-21 15:09 34.739125 -118.216830 72 2354ft 0kts
09-Jan-21 15:10 34.739125 -118.216830 72 2354ft 0kts
09-Jan-21 15:11 34.739125 -118.216830 72 2354ft 0kts
09-Jan-21 15:12 34.739125 -118.216830 72 2354ft 0kts
09-Jan-21 15:13 34.739125 -118.216830 72 2354ft 0kts
09-Jan-21 15:14 34.739125 -118.216830 72 2354ft 0kts
09-Jan-21 15:15 34.739125 -118.216830 72 2354ft 0kts
09-Jan-21 15:16 34.739125 -118.216830 72 2354ft 0kts
09-Jan-21 15:17 34.739125 -118.216830 72 2354ft 0kts
09-Jan-21 15:18 34.739125 -118.216830 72 2354ft 0kts
09-Jan-21 15:19 34.739336 -118.216902 310 2354ft 2kts
09-Jan-21 15:20 34.740136 -118.218108 280 2354ft 6kts
09-Jan-21 15:21 34.739467 -118.220875 251 2354ft 10kts
09-Jan-21 15:22 34.738511 -118.224476 252 2354ft 11kts
09-Jan-21 15:23 34.737445 -118.228407 250 2354ft 7kts
09-Jan-21 15:24 34.736866 -118.229456 298 2354ft 0kts
09-Jan-21 15:25 34.736866 -118.229456 298 2354ft 0kts
09-Jan-21 15:26 34.737215 -118.229640 341 2354ft 0kts
09-Jan-21 15:27 34.737215 -118.229640 341 2354ft 0kts
09-Jan-21 15:28 34.737795 -118.229777 11 2354ft 3kts
09-Jan-21 15:30 34.740403 -118.221099 72 2354ft 84kts
09-Jan-21 15:31 34.748022 -118.193084 70 3056ft 82kts
09-Jan-21 15:32 34.756109 -118.164637 70 3837ft 93kts
09-Jan-21 15:33 34.765966 -118.132666 71 4562ft 104kts
09-Jan-21 15:34 34.762219 -118.104716 156 5169ft 111kts
09-Jan-21 15:35 34.728532 -118.094419 169 5782ft 131kts
09-Jan-21 15:36 34.690872 -118.090075 170 6389ft 135kts
09-Jan-21 15:37 34.654250 -118.080411 153 6993ft 132kts
09-Jan-21 15:38 34.623505 -118.085066 263 7561ft 123kts
09-Jan-21 15:39 34.626684 -118.123057 278 8154ft 114kts
09-Jan-21 15:40 34.624886 -118.161281 275 8747ft 111kts
09-Jan-21 15:40 34.622937 -118.191695 275 9234ft 108kts
09-Jan-21 15:42 34.620233 -118.232847 274 9844ft 105kts
09-Jan-21 15:43 34.617904 -118.268391 274 10279ft 108kts
09-Jan-21 15:44 34.615482 -118.305844 274 10510ft 122kts
09-Jan-21 15:44 34.613087 -118.341696 273 10506ft 132kts
09-Jan-21 15:45 34.610082 -118.386482 273 10504ft 134kts
09-Jan-21 15:47 34.606575 -118.438634 273 10505ft 134kts
09-Jan-21 15:47 34.604048 -118.476069 273 10506ft 134kts
09-Jan-21 15:48 34.601009 -118.520785 273 10505ft 134kts
09-Jan-21 15:49 34.597972 -118.565294 273 10494ft 134kts
09-Jan-21 15:50 34.594904 -118.609973 273 10504ft 134kts
09-Jan-21 15:51 34.591791 -118.655097 272 10506ft 134kts
09-Jan-21 15:52 34.588713 -118.699474 272 10506ft 135kts
09-Jan-21 15:53 34.585624 -118.744224 272 10505ft 135kts
09-Jan-21 15:54 34.582464 -118.788279 272 10506ft 135kts
09-Jan-21 15:55 34.579115 -118.832894 271 10518ft 135kts
09-Jan-21 15:56 34.576039 -118.877236 272 10506ft 135kts
09-Jan-21 15:57 34.572989 -118.920837 272 10505ft 134kts
09-Jan-21 15:58 34.569825 -118.964529 272 10508ft 135kts
09-Jan-21 15:59 34.566738 -119.007690 272 10506ft 135kts
09-Jan-21 16:00 34.563605 -119.051089 272 10506ft 134kts
09-Jan-21 16:01 34.560484 -119.094190 272 10504ft 135kts
09-Jan-21 16:02 34.557311 -119.137484 272 10505ft 134kts
09-Jan-21 16:03 34.554089 -119.181405 272 10506ft 134kts
09-Jan-21 16:04 34.551038 -119.224964 272 10505ft 135kts
09-Jan-21 16:05 34.547656 -119.268900 272 10505ft 134kts
09-Jan-21 16:06 34.544335 -119.313262 272 10505ft 134kts
09-Jan-21 16:07 34.540963 -119.358124 272 10506ft 134kts
09-Jan-21 16:08 34.537537 -119.403619 272 10505ft 133kts
09-Jan-21 16:09 34.534076 -119.448869 272 10505ft 133kts
09-Jan-21 16:10 34.530682 -119.493847 272 10506ft 132kts
09-Jan-21 16:11 34.527224 -119.539237 272 10504ft 132kts
09-Jan-21 16:12 34.523799 -119.583901 272 10505ft 132kts
09-Jan-21 16:13 34.520382 -119.628290 272 10506ft 132kts
09-Jan-21 16:14 34.516921 -119.673236 271 10507ft 133kts
09-Jan-21 16:15 34.513337 -119.718619 271 10505ft 133kts
09-Jan-21 16:16 34.511500 -119.763920 304 10495ft 124kts
09-Jan-21 16:17 34.536939 -119.789185 327 10505ft 119kts
09-Jan-21 16:18 34.564882 -119.810986 329 10506ft 119kts
09-Jan-21 16:19 34.593003 -119.831777 329 10505ft 119kts
09-Jan-21 16:20 34.621103 -119.852401 330 10505ft 120kts
09-Jan-21 16:21 34.649737 -119.872953 330 10514ft 121kts
09-Jan-21 16:22 34.678106 -119.893725 330 10513ft 120kts
09-Jan-21 16:23 34.706600 -119.914232 330 10577ft 117kts
09-Jan-21 16:24 34.735184 -119.935139 330 10503ft 120kts
09-Jan-21 16:25 34.763486 -119.955597 329 10506ft 121kts
09-Jan-21 16:26 34.792032 -119.976660 330 10504ft 120kts
09-Jan-21 16:27 34.820207 -119.997183 329 10542ft 120kts
09-Jan-21 16:28 34.849241 -120.018553 329 10510ft 120kts
09-Jan-21 16:29 34.873753 -120.036501 330 10506ft 119kts
09-Jan-21 16:30 34.894846 -120.051900 330 10504ft 119kts
09-Jan-21 16:31 34.903229 -120.058035 330 10501ft 119kts
09-Jan-21 16:32 34.931199 -120.078519 331 10514ft 119kts
09-Jan-21 16:33 34.959829 -120.099309 330 10501ft 121kts
09-Jan-21 16:34 34.988201 -120.120247 331 10492ft 121kts
09-Jan-21 16:35 35.016646 -120.140918 330 10504ft 119kts
09-Jan-21 16:36 35.034533 -120.175931 303 10507ft 124kts
09-Jan-21 16:37 35.050801 -120.212956 303 10541ft 121kts
09-Jan-21 16:38 35.067002 -120.249998 303 10030ft 127kts
09-Jan-21 16:39 35.084298 -120.289723 302 9192ft 134kts
09-Jan-21 16:40 35.101015 -120.328476 304 8250ft 119kts
09-Jan-21 16:41 35.112754 -120.365683 292 7400ft 116kts
09-Jan-21 16:42 35.122091 -120.403465 294 6579ft 113kts
09-Jan-21 16:43 35.132980 -120.439684 299 5780ft 111kts
09-Jan-21 16:44 35.146979 -120.473056 300 5000ft 108kts
09-Jan-21 16:45 35.163066 -120.504084 300 4203ft 108kts
09-Jan-21 16:46 35.176828 -120.532190 298 3539ft 86kts
09-Jan-21 16:47 35.187541 -120.557058 304 2911ft 74kts
09-Jan-21 16:48 35.199370 -120.576852 309 2283ft 70kts
09-Jan-21 16:49 35.211111 -120.596230 311 1530ft 70kts
09-Jan-21 16:50 35.222700 -120.615523 304 754ft 68kts
09-Jan-21 16:51 35.233088 -120.633631 305 231ft 52kts
09-Jan-21 16:52 35.237422 -120.639930 4 215ft 0kts
09-Jan-21 16:53 35.237422 -120.639930 4 215ft 0kts
09-Jan-21 16:54 35.238400 -120.639983 19 215ft 5kts
09-Jan-21 16:55 35.238888 -120.638822 93 215ft 0kts
09-Jan-21 16:56 35.238888 -120.638822 93 215ft 0kts
09-Jan-21 16:57 35.238888 -120.638822 93 215ft 0kts
09-Jan-21 16:58 35.238888 -120.638822 93 215ft 0kts
09-Jan-21 16:59 35.238888 -120.638822 93 215ft 0kts
09-Jan-21 17:00 35.238888 -120.638822 93 215ft 0kts
09-Jan-21 17:01 35.238888 -120.638822 93 215ft 0kts

Navigation Log

Ident Type
Flight plan parsing failed, navigation log unavailable